Vitry en Artois Airfield

LFQS · Département du Pas-de-Calais, Nord-Pas-de-Calais-Picardie, France

METAR anciennes LFQS · Vitry en Artois Airfield

Tu vois ci-dessous les METAR des derniers jours. Sélectionne une année pour parcourir les METAR plus anciens, à partir de l'année 2007.

27 novembre 2022

Temps Code Temps Temp. Vue Base cloud Vent METAR/SPECI
12:00
I
7 °C 10 km+ 800 ft 160° 160° 11 kt SPECI LFQQ 271100Z AUTO 16011KT 9999 -DZ BKN008 BKN012 OVC020 07/06 Q1017 TEMPO 2000 OVC004
12:30
I
7 °C 4,3 km 500 ft 160° 160° 10 kt METAR LFQQ 271130Z AUTO 16010KT 4300 -RA BR BKN005 OVC012 07/06 Q1017 TEMPO 2000
12:00
I
7 °C 10 km+ 800 ft 160° 160° 11 kt METAR LFQQ 271100Z AUTO 16011KT 9999 -DZ BKN008 BKN012 OVC020 07/06 Q1017 TEMPO 2000 OVC004
11:30
I
6 °C 7 km 700 ft 160° 160° 10 kt METAR LFQQ 271030Z AUTO 16010KT 7000 -DZ BKN007 OVC023 06/06 Q1018 TEMPO 2000 OVC004
11:00
I
6 °C 10 km+ 700 ft 150° 150° 10 kt METAR LFQQ 271000Z AUTO 15010KT 9999 -RA BKN007 OVC025 06/06 Q1018 BECMG 4000 RA
10:30
I
6 °C 10 km+ 800 ft 150° 150° 11 kt METAR LFQQ 270930Z AUTO 15011KT 9999 -RA BKN008 BKN017 OVC025 06/06 Q1018 BECMG 4000 RA
10:00
I
6 °C 10 km+ 800 ft 160° 160° 12 kt METAR LFQQ 270900Z AUTO 16012KT 9999 -RA BKN008 OVC028 06/05 Q1019 BECMG 4000 RA
09:30
M
6 °C 9 km 2.900 ft 160° 160° 12 kt METAR LFQQ 270830Z AUTO 16012KT 9000 -RA FEW009 OVC029 06/05 Q1019 BECMG 4000 RA OVC008
09:00
V
6 °C 10 km+ 3.300 ft 160° 160° 11 kt METAR LFQQ 270800Z AUTO 16011KT 9999 -RA FEW010 SCT015 OVC033 06/05 Q1019 BECMG 4000 RA OVC008
08:30
V
6 °C 10 km+ 3.900 ft 150° 150° 10 kt METAR LFQQ 270730Z AUTO 15010KT 9999 -RA OVC039 06/05 Q1019 BECMG 4000 RA OVC008
08:00
V
6 °C 10 km+ 3.700 ft 150° 150° 12 kt METAR LFQQ 270700Z AUTO 15012KT 9999 -RA FEW010 OVC037 06/05 Q1019 BECMG 4000 RA OVC008
07:30
V
6 °C 10 km+ 3.700 ft 160° 160° 12 kt METAR LFQQ 270630Z AUTO 16012KT 9999 -RA FEW008 OVC037 06/05 Q1020 BECMG 4000 RA OVC008
07:00
V
6 °C 10 km+ 4.000 ft 160° 160° 13 kt METAR LFQQ 270600Z AUTO 16013KT 9999 -RA FEW010 OVC040 06/05 Q1020 BECMG 4000 RA OVC008
06:30
V
6 °C 9 km 4.800 ft 160° 160° 13 kt METAR LFQQ 270530Z AUTO 16013KT 9000 -RA FEW010 OVC048 06/05 Q1020 BECMG 4000 RA OVC008
06:00
V
6 °C 10 km+ 5.200 ft 160° 160° 12 kt METAR LFQQ 270500Z AUTO 16012KT 9999 -RA FEW012 SCT039 OVC052 06/05 Q1021 NOSIG
05:30
V
6 °C 10 km+ 6.000 ft 160° 160° 13 kt METAR LFQQ 270430Z AUTO 16013KT 9999 -DZ FEW011 OVC060 06/05 Q1021 NOSIG
05:00
V
6 °C 10 km+ 6.800 ft 160° 160° 13 kt METAR LFQQ 270400Z AUTO 16013KT 9999 -RA FEW012 OVC068 06/05 Q1021 NOSIG
04:30
V
7 °C 10 km+ - 160° 160° 13 kt METAR LFQQ 270330Z AUTO 16013KT 9999 -RA NSC 07/05 Q1021 NOSIG
04:00
V
7 °C 10 km+ - 170° 170° 14 kt METAR LFQQ 270300Z AUTO 17014KT 9999 -RA NSC 07/05 Q1022 NOSIG
03:30
V
7 °C 10 km+ - 160° 160° 13 kt METAR LFQQ 270230Z AUTO 16013KT CAVOK 07/05 Q1022 NOSIG
03:00
V
7 °C 10 km+ 7.000 ft 160° 160° 14 kt METAR LFQQ 270200Z AUTO 16014KT 9999 -DZ FEW012/// BKN070/// OVC100/// //////TCU 07/05 Q1022 BECMG NSC
02:30
V
7 °C 10 km+ 9.600 ft 160° 160° 15 kt METAR LFQQ 270130Z AUTO 16015KT 9999 FEW009 SCT078 BKN096 07/05 Q1022 NOSIG
02:00
I
6 °C 10 km+ 900 ft 150° 150° 15 kt METAR LFQQ 270100Z AUTO 15015KT 9999 BKN009 BKN120 OVC140 06/05 Q1022 BECMG NSC
01:30
I
7 °C 10 km+ 900 ft 150° 150° 13 kt METAR LFQQ 270030Z AUTO 15013KT 9999 OVC009 07/05 Q1023 BECMG NSC
01:00
I
7 °C 10 km+ 800 ft 150° 150° 12 kt METAR LFQQ 270000Z AUTO 15012KT 120V180 9999 OVC008 07/05 Q1023 BECMG NSC
00:30
I
7 °C 10 km+ 900 ft 150° 150° 12 kt METAR LFQQ 262330Z AUTO 15012KT 9999 OVC009 07/05 Q1023 BECMG NSC
00:00
I
7 °C 10 km+ 900 ft 160° 160° 14 kt METAR LFQQ 262300Z AUTO 16014KT 9999 OVC009 07/06 Q1024 BECMG NSC

26 novembre 2022

Temps Code Temps Temp. Vue Base cloud Vent METAR/SPECI
23:30
M
7 °C 10 km+ 1.000 ft 150° 150° 14 kt METAR LFQQ 262230Z AUTO 15014KT 9999 OVC010 07/06 Q1024 BECMG NSC
23:00
I
7 °C 10 km+ 900 ft 160° 160° 12 kt METAR LFQQ 262200Z AUTO 16012KT 9999 OVC009 07/06 Q1025 NOSIG
22:30
I
7 °C 10 km+ 900 ft 170° 170° 11 kt METAR LFQQ 262130Z AUTO 17011KT 9999 OVC009 07/06 Q1025 BECMG NSC
22:00
I
7 °C 10 km+ 900 ft 180° 180° 14 kt METAR LFQQ 262100Z AUTO 18014KT 9999 OVC009 07/06 Q1025 NOSIG
21:30
M
7 °C 10 km+ 1.000 ft 180° 180° 14 kt METAR LFQQ 262030Z AUTO 18014KT 9999 OVC010 07/06 Q1026 NOSIG
21:00
M
7 °C 10 km+ 1.000 ft 170° 170° 13 kt METAR LFQQ 262000Z AUTO 17013KT 9999 OVC010 07/06 Q1026 NOSIG
20:30
M
8 °C 10 km+ 1.000 ft 160° 160° 10 kt METAR LFQQ 261930Z AUTO 16010KT 9999 OVC010 08/06 Q1026 NOSIG
20:00
M
8 °C 10 km+ 1.000 ft 160° 160° 15 kt METAR LFQQ 261900Z AUTO 16015KT 9999 OVC010 08/06 Q1026 NOSIG
19:30
I
8 °C 10 km+ 800 ft 160° 160° 13 kt METAR LFQQ 261830Z AUTO 16013KT 9999 OVC008 08/06 Q1026 NOSIG
19:00
I
7 °C 10 km+ 700 ft 150° 150° 12 kt METAR LFQQ 261800Z AUTO 15012KT 9999 OVC007 07/07 Q1026 NOSIG
18:30
I
8 °C 10 km+ 600 ft 160° 160° 12 kt METAR LFQQ 261730Z AUTO 16012KT 9999 OVC006 08/07 Q1026 NOSIG
18:00
I
8 °C 10 km+ 500 ft 160° 160° 11 kt METAR LFQQ 261700Z AUTO 16011KT 9999 OVC005 08/07 Q1027 NOSIG
17:30
I
8 °C 10 km+ 500 ft 160° 160° 12 kt METAR LFQQ 261630Z AUTO 16012KT 9999 OVC005 08/07 Q1027 NOSIG
17:00
I
8 °C 10 km+ 500 ft 160° 160° 11 kt METAR LFQQ 261600Z AUTO 16011KT 9999 BKN005 08/07 Q1027 NOSIG
16:30
V
8 °C 10 km+ - 150° 150° 8 kt METAR LFQQ 261530Z AUTO 15008KT 9999 FEW007 SCT200 08/07 Q1027 TEMPO BKN006
16:00
V
9 °C 10 km+ - 150° 150° 9 kt METAR LFQQ 261500Z AUTO 15009KT CAVOK 09/07 Q1027 TEMPO BKN006
15:30
V
9 °C 10 km+ - 150° 150° 7 kt METAR LFQQ 261430Z AUTO 15007KT 9999 FEW013 09/07 Q1027 TEMPO BKN006
15:00
V
10 °C 10 km+ - 170° 170° 7 kt METAR LFQQ 261400Z AUTO 17007KT 9999 FEW015 10/08 Q1027 TEMPO BKN006
14:30
V
10 °C 10 km+ - 170° 170° 8 kt METAR LFQQ 261330Z AUTO 17008KT CAVOK 10/08 Q1028 TEMPO BKN006
14:00
V
10 °C 10 km+ - 170° 170° 8 kt METAR LFQQ 261300Z AUTO 17008KT 140V200 9999 FEW013 10/08 Q1028 TEMPO BKN006
13:30
V
11 °C 10 km+ - 180° 180° 10 kt METAR LFQQ 261230Z AUTO 18010KT 9999 FEW012 11/08 Q1028 TEMPO BKN006
13:00
V
11 °C 10 km+ - 170° 170° 9 kt METAR LFQQ 261200Z AUTO 17009KT 9999 FEW013 11/08 Q1028 TEMPO BKN006
12:30
V
10 °C 10 km+ - 170° 170° 9 kt METAR LFQQ 261130Z AUTO 17009KT 9999 FEW011 10/08 Q1028 BECMG OVC007
12:00
V
9 °C 10 km+ 23.000 ft 170° 170° 7 kt METAR LFQQ 261100Z AUTO 17007KT 9999 FEW008 OVC230 09/07 Q1028 TEMPO 4000 BR BECMG OVC007
11:30
V
8 °C 10 km+ - 160° 160° 6 kt METAR LFQQ 261030Z AUTO 16006KT 9999 FEW007 SCT230 08/07 Q1029 TEMPO 4000 BR BECMG OVC007
11:00
V
7 °C 10 km+ - 160° 160° 5 kt METAR LFQQ 261000Z AUTO 16005KT 130V190 9999 FEW006 07/07 Q1029 BECMG 4000 BR OVC004
10:30
V
7 °C 10 km+ - 150° 150° 5 kt METAR LFQQ 260930Z AUTO 15005KT CAVOK 07/06 Q1029 BECMG 4000 BR OVC004
10:00
V
6 °C 10 km+ - 140° 140° 6 kt METAR LFQQ 260900Z AUTO 14006KT 9999 FEW047 SCT160 06/06 Q1029 TEMPO VV/// BECMG 4000 BR
09:30
V
6 °C 10 km+ - 160° 160° 6 kt METAR LFQQ 260830Z AUTO 16006KT CAVOK 06/06 Q1028 TEMPO VV/// BECMG 4000 BR
09:00
V
5 °C 10 km+ - 160° 160° 6 kt METAR LFQQ 260800Z AUTO 16006KT CAVOK 05/05 Q1028 TEMPO 0500 FG VV///
08:30
V
5 °C 10 km+ - 160° 160° 5 kt METAR LFQQ 260730Z AUTO 16005KT CAVOK 05/05 Q1028 TEMPO 0500 FG VV///
08:00
V
5 °C 10 km+ - Var Var 2 kt METAR LFQQ 260700Z AUTO VRB02KT CAVOK 05/05 Q1028 TEMPO 0500 FG VV///
07:30
V
4 °C 10 km+ - 150° 150° 4 kt METAR LFQQ 260630Z AUTO 15004KT CAVOK 04/04 Q1028 TEMPO 0500 FG VV///
07:00
V
4 °C 10 km+ - 130° 130° 3 kt METAR LFQQ 260600Z AUTO 13003KT CAVOK 04/04 Q1028 TEMPO 0500 FG VV///
06:30
V
5 °C 10 km+ - 160° 160° 3 kt METAR LFQQ 260530Z AUTO 16003KT CAVOK 05/05 Q1028 TEMPO 0500 FG VV///
06:00
V
5 °C 10 km+ - 160° 160° 4 kt METAR LFQQ 260500Z AUTO 16004KT CAVOK 05/05 Q1027 TEMPO 0500 FG VV///
05:30
V
4 °C 10 km+ - 150° 150° 4 kt METAR LFQQ 260430Z AUTO 15004KT CAVOK 04/04 Q1027 TEMPO 0500 FG VV///
05:00
V
5 °C 10 km+ - Var Var 3 kt METAR LFQQ 260400Z AUTO VRB03KT 9999 FEW042 05/05 Q1027 TEMPO 0500 FG VV///
04:30
V
4 °C 10 km+ - 160° 160° 5 kt METAR LFQQ 260330Z AUTO 16005KT CAVOK 04/04 Q1027 TEMPO 0500 FG VV///
04:00
V
4 °C 10 km+ - 160° 160° 4 kt METAR LFQQ 260300Z AUTO 16004KT CAVOK 04/04 Q1027 TEMPO 0500 FG VV///
03:30
V
4 °C 10 km+ - Var Var 3 kt METAR LFQQ 260230Z AUTO VRB03KT CAVOK 04/04 Q1027 TEMPO 0500 FG VV///
03:00
V
4 °C 10 km+ - 170° 170° 3 kt METAR LFQQ 260200Z AUTO 17003KT CAVOK 04/04 Q1027 TEMPO 0500 FG VV///
02:30
V
4 °C 10 km+ 3.400 ft 160° 160° 2 kt METAR LFQQ 260130Z AUTO 16002KT 9999 SCT029 BKN034 OVC210 04/04 Q1027 TEMPO 0500 FG VV///
02:00
L
4 °C 1,2 km 2.900 ft Var Var 2 kt METAR LFQQ 260100Z AUTO VRB02KT 6000 1200 R26/3400N R08/P5000 BKN029 OVC210 04/04 Q1027 TEMPO 0500 FG VV///
01:30
L
3 °C 900 m - 130° 130° 4 kt METAR LFQQ 260030Z AUTO 13004KT 090V160 2500 0900 R26/2600U R08/2000D BCFG NSC 03/03 Q1027 TEMPO 0500 FG VV///
01:00
I
4 °C 1,6 km - 200° 200° 2 kt METAR LFQQ 260000Z AUTO 20002KT 3900 1600 BR NSC 04/04 Q1026 TEMPO 0500 FG VV///
00:30
L
4 °C 900 m - Var Var 3 kt METAR LFQQ 252330Z AUTO VRB03KT 1100 0900 R26/1000U R08/2700N BCFG NSC 04/04 Q1026 TEMPO 3000 BR
00:00
L
4 °C 750 m - Var Var 1 kt METAR LFQQ 252300Z AUTO VRB01KT 1100 0750 R26/1000D R08/1100N BCFG NSC 04/03 Q1026 TEMPO 3000 BR

25 novembre 2022

Temps Code Temps Temp. Vue Base cloud Vent METAR/SPECI
23:30
L
5 °C 450 m - 240° 240° 2 kt METAR LFQQ 252230Z AUTO 24002KT 9999 0450 R26/0550D R08/P5000 BCFG NSC 05/05 Q1026 NOSIG
23:00
M
5 °C 5 km - Var 000° 0 kt METAR LFQQ 252200Z AUTO 00000KT 5000 BR NSC 05/04 Q1025 NOSIG
22:30
L
5 °C 1,1 km - 200° 200° 1 kt METAR LFQQ 252130Z AUTO 20001KT 7000 1100 R26/1500D R08/P5000 NSC 05/04 Q1025 NOSIG
22:00
V
6 °C 10 km+ - Var 000° 0 kt METAR LFQQ 252100Z AUTO 00000KT CAVOK 06/05 Q1025 NOSIG
21:30
V
7 °C 10 km+ - 230° 230° 4 kt METAR LFQQ 252030Z AUTO 23004KT CAVOK 07/06 Q1024 NOSIG
21:00
V
6 °C 10 km+ - 250° 250° 3 kt METAR LFQQ 252000Z AUTO 25003KT CAVOK 06/05 Q1024 NOSIG
20:30
V
7 °C 10 km+ - Var Var 1 kt METAR LFQQ 251930Z AUTO VRB01KT CAVOK 07/06 Q1024 NOSIG
20:00
V
7 °C 10 km+ - Var Var 1 kt METAR LFQQ 251900Z AUTO VRB01KT CAVOK 07/05 Q1023 NOSIG
19:30
V
8 °C 10 km+ - 180° 180° 3 kt METAR LFQQ 251830Z AUTO 18003KT CAVOK 08/07 Q1023 NOSIG
19:00
V
9 °C 10 km+ - 220° 220° 5 kt METAR LFQQ 251800Z AUTO 22005KT CAVOK 09/07 Q1022 NOSIG
18:30
V
9 °C 10 km+ - 220° 220° 6 kt METAR LFQQ 251730Z AUTO 22006KT CAVOK 09/07 Q1022 NOSIG
18:00
V
9 °C 10 km+ - 220° 220° 6 kt METAR LFQQ 251700Z AUTO 22006KT CAVOK 09/08 Q1021 NOSIG
17:30
V
10 °C 10 km+ - 220° 220° 7 kt METAR LFQQ 251630Z AUTO 22007KT CAVOK 10/08 Q1021 NOSIG
17:00
V
10 °C 10 km+ - 220° 220° 7 kt METAR LFQQ 251600Z AUTO 22007KT 9999 FEW033 10/08 Q1021 NOSIG
16:30
V
11 °C 10 km+ - 230° 230° 6 kt METAR LFQQ 251530Z AUTO 23006KT 9999 FEW026 11/08 Q1020 NOSIG
16:00
V
12 °C 10 km+ - 230° 230° 7 kt METAR LFQQ 251500Z AUTO 23007KT 9999 FEW023 12/08 Q1019 NOSIG
15:30
V
12 °C 10 km+ - 250° 250° 8 kt METAR LFQQ 251430Z AUTO 25008KT 9999 FEW022 SCT028 12/08 Q1019 NOSIG
15:00
V
12 °C 10 km+ - 250° 250° 11 kt METAR LFQQ 251400Z AUTO 25011KT CAVOK 12/08 Q1019 BECMG 18003KT
14:30
V
12 °C 10 km+ - 250° 250° 12 kt METAR LFQQ 251330Z AUTO 25012KT CAVOK 12/08 Q1018 BECMG 18003KT
14:00
V
12 °C 10 km+ - 250° 250° 12 kt METAR LFQQ 251300Z AUTO 25012KT CAVOK 12/09 Q1017 BECMG 18003KT
13:30
V
12 °C 10 km+ - 240° 240° 13 kt METAR LFQQ 251230Z AUTO 24013KT 9999 FEW018 12/08 Q1017 BECMG 18003KT
13:00
V
12 °C 10 km+ - 230° 230° 12 kt METAR LFQQ 251200Z AUTO 23012KT 9999 FEW019 12/08 Q1017 NOSIG
12:30
V
11 °C 10 km+ - 230° 230° 10 kt METAR LFQQ 251130Z AUTO 23010KT CAVOK 11/08 Q1017 NOSIG
12:00
V
11 °C 10 km+ - 230° 230° 11 kt METAR LFQQ 251100Z AUTO 23011KT 9999 FEW015 11/08 Q1017 NOSIG
11:30
V
10 °C 10 km+ - 220° 220° 7 kt METAR LFQQ 251030Z AUTO 22007KT CAVOK 10/08 Q1016 NOSIG
11:00
V
10 °C 10 km+ - 210° 210° 8 kt METAR LFQQ 251000Z AUTO 21008KT CAVOK 10/07 Q1016 TEMPO 21015G25KT 2000 SHRA BKN012 BKN035CB

Nous et des tiers suivons ton comportement Internet sur notre site Web à l'aide de cookies. Si tu continues, nous supposons que tu es d'accord avec notre Politique en matière de cookies.